Alvadore, Oregon
Current Conditions -  °F | °C
As of 3:54 AM on Monday 22 Dec 2014 (Local Time) from KEUG Reporting Station
Overcast Overcast  
Wind Chill: 51°   Ceiling: 600
Heat Index: 51°   Visibility: 10mi
Dew Point: 50°   Wind: 0mph
Humidity: 96%   Direction: NA
Pressure: 30.29"   Gusts: NA
Location:  44.13°N, 123.26°W
Report Text: KEUG 221154Z AUTO 00000KT 10SM OVC006 11/10 A3029 RMK AO2 SLP258 60009 70051 T01060100 10111 20106 53027 $
Loading
Personal Weather Stations






























Interactive Weather Map New forecast layout! Learn more

10-Day Weather Forecast

Advertisements
Track Severe Weather on mobile